createdAt,value
2022-09-28T00:00:58.684Z,95915.78
2022-09-28T00:03:25.783Z,95924.75
2022-09-28T00:05:52.327Z,95925.19
2022-09-28T00:08:18.956Z,95912.63
2022-09-28T00:10:54.199Z,95925.00
2022-09-28T00:13:20.820Z,95923.66
2022-09-28T00:15:47.368Z,95899.31
2022-09-28T00:18:13.976Z,95911.97
2022-09-28T00:20:40.588Z,95933.34
2022-09-28T00:23:07.159Z,95937.59
2022-09-28T00:25:33.804Z,95943.63
2022-09-28T00:28:00.631Z,95580.75
2022-09-28T00:30:27.187Z,95928.31
2022-09-28T00:32:53.810Z,95932.44
2022-09-28T00:35:20.423Z,95937.88
2022-09-28T00:37:49.119Z,95929.81
2022-09-28T00:40:15.868Z,95933.00
2022-09-28T00:42:42.994Z,95858.75
2022-09-28T00:45:10.006Z,95932.13
2022-09-28T00:47:53.764Z,95932.13
2022-09-28T00:50:26.119Z,95936.50
2022-09-28T00:53:02.282Z,95918.41
2022-09-28T00:55:39.120Z,95867.81
2022-09-28T00:58:09.457Z,95932.97
2022-09-28T01:00:36.192Z,95925.78
2022-09-28T01:03:04.049Z,95936.25
2022-09-28T01:05:30.742Z,95878.53
2022-09-28T01:07:57.862Z,95940.00
2022-09-28T01:10:25.284Z,95929.72
2022-09-28T01:12:51.827Z,95937.72
2022-09-28T01:15:21.844Z,95854.06
2022-09-28T01:18:00.743Z,95864.00
2022-09-28T01:20:34.746Z,95947.78
2022-09-28T01:23:38.724Z,95931.84
2022-09-28T01:26:44.656Z,95929.22
2022-09-28T01:29:17.689Z,95930.13
2022-09-28T01:31:51.286Z,95933.66
2022-09-28T01:34:21.279Z,95928.53
2022-09-28T01:36:55.472Z,95934.91
2022-09-28T01:39:30.318Z,95923.06
2022-09-28T01:42:03.132Z,95923.56
2022-09-28T01:44:37.406Z,95887.00
2022-09-28T01:47:04.966Z,95840.38
2022-09-28T01:49:41.033Z,95942.19
2022-09-28T01:52:18.333Z,95958.84
2022-09-28T01:55:30.298Z,95984.34
2022-09-28T01:58:00.909Z,95927.25
2022-09-28T02:00:28.348Z,95935.94
2022-09-28T02:03:18.379Z,95944.66
2022-09-28T02:05:53.919Z,95927.31
2022-09-28T02:08:28.527Z,95815.44
2022-09-28T02:11:03.040Z,95939.41
2022-09-28T02:13:38.028Z,95956.09
2022-09-28T02:16:17.141Z,95959.38
2022-09-28T02:18:45.176Z,95969.75
2022-09-28T02:21:22.824Z,95957.84
2022-09-28T02:24:04.171Z,95606.34
2022-09-28T02:26:36.103Z,95949.13
2022-09-28T02:29:02.813Z,95960.19
2022-09-28T02:31:29.549Z,95917.53
2022-09-28T02:33:57.686Z,95945.97
2022-09-28T02:36:25.897Z,95939.66
2022-09-28T02:38:53.258Z,95936.88
2022-09-28T02:41:38.372Z,95938.38
2022-09-28T02:44:17.064Z,95934.00
2022-09-28T02:47:16.576Z,95924.50
2022-09-28T02:49:52.224Z,95935.72
2022-09-28T02:52:55.568Z,95943.25
2022-09-28T02:55:40.346Z,95934.19
2022-09-28T02:58:40.647Z,95934.19
2022-09-28T03:01:07.254Z,95944.91
2022-09-28T03:03:42.628Z,95941.38
2022-09-28T03:06:27.181Z,95904.28
2022-09-28T03:09:04.752Z,95946.56
2022-09-28T03:11:49.388Z,95922.41
2022-09-28T03:14:16.206Z,95942.94
2022-09-28T03:16:46.635Z,95922.50
2022-09-28T03:19:14.700Z,95841.09
2022-09-28T03:21:41.442Z,95935.91
2022-09-28T03:24:10.568Z,95953.31
2022-09-28T03:26:40.023Z,95949.31
2022-09-28T03:29:06.903Z,95920.88
2022-09-28T03:31:33.794Z,95851.09
2022-09-28T03:34:00.423Z,95944.56
2022-09-28T03:36:26.989Z,95948.59
2022-09-28T03:38:56.598Z,95910.31
2022-09-28T03:41:28.504Z,95941.84
2022-09-28T03:43:55.224Z,95949.41
2022-09-28T03:46:22.017Z,95958.19
2022-09-28T03:48:48.627Z,95828.66
2022-09-28T03:51:15.193Z,95921.91
2022-09-28T03:53:41.794Z,95953.47
2022-09-28T03:56:13.530Z,95953.50
2022-09-28T03:58:40.203Z,95868.19
2022-09-28T04:01:14.154Z,95958.28
2022-09-28T04:03:45.225Z,95963.00
2022-09-28T04:06:12.436Z,95889.56
2022-09-28T04:08:39.378Z,95963.06
2022-09-28T04:11:06.418Z,95951.22
2022-09-28T04:13:33.146Z,95928.31
2022-09-28T04:16:01.629Z,95919.19
2022-09-28T04:18:29.261Z,95966.19
2022-09-28T04:21:04.680Z,95959.41
2022-09-28T04:23:31.315Z,95964.97
2022-09-28T04:25:58.084Z,95970.09
2022-09-28T04:28:43.981Z,95951.97
2022-09-28T04:31:13.392Z,95970.16
2022-09-28T04:33:40.038Z,95982.81
2022-09-28T04:36:06.830Z,95973.34
2022-09-28T04:38:51.620Z,95990.69
2022-09-28T04:41:19.842Z,95984.38
2022-09-28T04:43:50.155Z,95987.50
2022-09-28T04:46:17.056Z,95943.19
2022-09-28T04:48:43.933Z,95986.63
2022-09-28T04:51:10.574Z,96002.06
2022-09-28T04:53:37.277Z,95984.16
2022-09-28T04:56:10.242Z,95990.94
2022-09-28T04:58:37.402Z,95919.38
2022-09-28T05:01:10.930Z,95884.59
2022-09-28T05:03:38.268Z,95963.50
2022-09-28T05:06:07.034Z,96004.50
2022-09-28T05:08:35.315Z,95937.38
2022-09-28T05:11:07.082Z,96008.31
2022-09-28T05:13:41.725Z,96003.91
2022-09-28T05:16:09.614Z,96010.63
2022-09-28T05:18:36.288Z,96008.16
2022-09-28T05:21:03.359Z,95937.91
2022-09-28T05:23:29.990Z,95998.16
2022-09-28T05:25:56.564Z,96009.53
2022-09-28T05:28:26.762Z,95989.22
2022-09-28T05:30:53.473Z,96012.34
2022-09-28T05:33:20.527Z,95981.91
2022-09-28T05:35:51.009Z,96013.78
2022-09-28T05:38:20.079Z,96014.75
2022-09-28T05:40:46.934Z,96034.13
2022-09-28T05:43:13.548Z,96011.41
2022-09-28T05:45:40.379Z,96019.44
2022-09-28T05:48:07.087Z,95802.06
2022-09-28T05:50:34.119Z,96016.78
2022-09-28T05:53:03.206Z,95849.22
2022-09-28T05:55:30.586Z,95954.63
2022-09-28T05:58:05.892Z,96053.22
2022-09-28T06:00:33.747Z,96017.53
2022-09-28T06:03:08.666Z,96000.31
2022-09-28T06:05:36.821Z,96014.19
2022-09-28T06:08:05.361Z,96015.50
2022-09-28T06:10:33.325Z,96032.00
2022-09-28T06:13:00.462Z,95876.09
2022-09-28T06:15:29.499Z,96018.66
2022-09-28T06:18:14.888Z,95931.59
2022-09-28T06:20:42.440Z,95951.69
2022-09-28T06:23:10.713Z,95996.50
2022-09-28T06:25:37.815Z,95879.59
2022-09-28T06:28:12.394Z,95732.97
2022-09-28T06:30:40.063Z,95953.75
2022-09-28T06:33:08.436Z,95941.78
2022-09-28T06:35:35.343Z,95983.19
2022-09-28T06:38:02.265Z,96002.59
2022-09-28T06:40:29.330Z,95971.16
2022-09-28T06:43:12.591Z,96015.38
2022-09-28T06:45:39.316Z,96029.38
2022-09-28T06:48:06.774Z,96026.81
2022-09-28T06:50:37.602Z,95777.19
2022-09-28T06:53:06.835Z,95964.97
2022-09-28T06:55:33.497Z,95883.88
2022-09-28T06:58:02.230Z,95933.88
2022-09-28T07:00:31.508Z,96023.47
2022-09-28T07:02:58.342Z,96020.63
2022-09-28T07:05:28.895Z,96025.09
2022-09-28T07:07:56.794Z,96032.78
2022-09-28T07:10:28.460Z,96025.94
2022-09-28T07:12:56.957Z,96023.94
2022-09-28T07:15:26.019Z,96018.81
2022-09-28T07:18:03.130Z,95953.88
2022-09-28T07:20:30.814Z,96021.50
2022-09-28T07:23:16.081Z,96014.56
2022-09-28T07:25:48.124Z,95964.63
2022-09-28T07:28:15.246Z,96025.75
2022-09-28T07:30:42.643Z,96005.22
2022-09-28T07:33:12.666Z,96013.97
2022-09-28T07:35:41.763Z,96008.69
2022-09-28T07:38:10.294Z,96031.78
2022-09-28T07:40:55.536Z,95967.91
2022-09-28T07:43:22.591Z,95926.13
2022-09-28T07:45:52.307Z,95862.03
2022-09-28T07:48:19.852Z,95732.81
2022-09-28T07:50:52.290Z,96014.50
2022-09-28T07:53:20.267Z,95975.78
2022-09-28T07:55:53.892Z,96017.41
2022-09-28T07:58:20.780Z,96000.41
2022-09-28T08:00:48.928Z,95997.66
2022-09-28T08:03:22.499Z,96020.97
2022-09-28T08:05:49.596Z,96015.63
2022-09-28T08:08:16.268Z,96022.28
2022-09-28T08:10:46.893Z,96010.13
2022-09-28T08:13:15.374Z,96025.03
2022-09-28T08:15:42.664Z,96024.63
2022-09-28T08:18:09.886Z,95987.69
2022-09-28T08:20:55.321Z,96016.69
2022-09-28T08:23:21.997Z,96026.56
2022-09-28T08:25:49.652Z,95979.72
2022-09-28T08:28:17.759Z,96023.00
2022-09-28T08:30:45.956Z,96023.03
2022-09-28T08:33:13.685Z,95998.56
2022-09-28T08:35:41.294Z,95907.06
2022-09-28T08:38:08.767Z,95931.16
2022-09-28T08:40:44.875Z,95867.78
2022-09-28T08:43:29.472Z,96009.69
2022-09-28T08:45:59.242Z,96006.19
2022-09-28T08:48:56.374Z,95957.38
2022-09-28T08:51:33.870Z,96004.00
2022-09-28T08:54:11.021Z,95922.63
2022-09-28T08:56:50.503Z,96001.13
2022-09-28T08:59:25.069Z,95938.56
2022-09-28T09:02:00.846Z,95997.22
2022-09-28T09:04:27.630Z,95961.41
2022-09-28T09:07:03.364Z,95998.75
2022-09-28T09:09:49.884Z,95986.41
2022-09-28T09:12:28.819Z,95995.69
2022-09-28T09:15:13.126Z,95990.03
2022-09-28T09:18:26.272Z,95997.22
2022-09-28T09:20:58.534Z,95993.78
2022-09-28T09:23:55.465Z,95989.94
2022-09-28T09:26:39.277Z,95997.34
2022-09-28T09:29:27.508Z,95992.78
2022-09-28T09:32:16.769Z,95992.19
2022-09-28T09:34:52.313Z,95982.84
2022-09-28T09:37:37.679Z,95993.38
2022-09-28T09:40:16.488Z,95983.66
2022-09-28T09:43:05.651Z,95908.41
2022-09-28T09:45:48.221Z,95960.41
2022-09-28T09:48:31.773Z,95956.50
2022-09-28T09:51:06.559Z,95932.53
2022-09-28T09:53:40.752Z,95986.22
2022-09-28T09:56:22.768Z,95985.63
2022-09-28T09:58:54.117Z,95884.63
2022-09-28T10:01:32.278Z,95974.91
2022-09-28T10:03:59.961Z,95927.31
2022-09-28T10:06:31.717Z,95968.81
2022-09-28T10:09:10.143Z,95963.75
2022-09-28T10:11:42.458Z,95881.09
2022-09-28T10:14:15.050Z,95926.94
2022-09-28T10:16:43.053Z,95905.38
2022-09-28T10:19:13.374Z,95922.06
2022-09-28T10:21:42.236Z,95917.88
2022-09-28T10:24:17.491Z,95945.63
2022-09-28T10:26:49.799Z,95949.16
2022-09-28T10:29:20.945Z,95866.06
2022-09-28T10:31:50.257Z,95616.84
2022-09-28T10:34:19.765Z,95933.25
2022-09-28T10:36:59.987Z,95938.19
2022-09-28T10:39:29.885Z,95932.00
2022-09-28T10:41:58.758Z,95905.63
2022-09-28T10:44:26.188Z,95868.44
2022-09-28T10:47:17.077Z,95932.88
2022-09-28T10:49:47.542Z,95938.03
2022-09-28T10:52:42.849Z,95938.13
2022-09-28T10:55:21.424Z,95941.75
2022-09-28T10:57:48.341Z,95939.03
2022-09-28T11:00:32.180Z,95937.88
2022-09-28T11:03:00.731Z,95939.03
2022-09-28T11:05:28.257Z,95864.81
2022-09-28T11:07:56.696Z,95935.31
2022-09-28T11:10:33.528Z,95932.38
2022-09-28T11:13:00.956Z,95848.06
2022-09-28T11:15:31.601Z,95875.72
2022-09-28T11:18:19.379Z,95886.00
2022-09-28T11:20:46.345Z,95874.19
2022-09-28T11:23:22.201Z,95913.53
2022-09-28T11:26:02.744Z,95910.38
2022-09-28T11:28:32.872Z,95877.72
2022-09-28T11:31:00.423Z,95842.66
2022-09-28T11:33:36.543Z,95908.31
2022-09-28T11:36:17.115Z,95904.50
2022-09-28T11:39:11.699Z,95904.28
2022-09-28T11:41:51.727Z,95905.91
2022-09-28T11:44:44.582Z,95895.56
2022-09-28T11:47:28.856Z,95892.91
2022-09-28T11:49:56.237Z,95895.50
2022-09-28T11:52:32.597Z,95778.97
2022-09-28T11:55:17.323Z,95884.78
2022-09-28T11:57:48.925Z,95620.13
2022-09-28T12:00:20.808Z,95900.69
2022-09-28T12:03:13.789Z,95881.91
2022-09-28T12:05:52.387Z,95750.47
2022-09-28T12:08:30.677Z,95881.97
2022-09-28T12:10:58.394Z,95883.56
2022-09-28T12:13:33.056Z,95880.81
2022-09-28T12:21:30.432Z,95879.56
2022-09-28T12:24:04.202Z,95735.16
2022-09-28T12:26:46.221Z,95584.88
2022-09-28T12:29:26.727Z,95779.03
2022-09-28T12:31:58.204Z,95806.31
2022-09-28T12:34:24.885Z,95841.59
2022-09-28T12:37:09.803Z,95885.25
2022-09-28T12:39:58.060Z,95866.25
2022-09-28T12:42:41.251Z,95627.38
2022-09-28T12:45:30.998Z,95872.41
2022-09-28T12:48:14.452Z,95868.91
2022-09-28T12:50:57.904Z,95841.75
2022-09-28T12:53:43.489Z,95872.50
2022-09-28T12:56:34.007Z,95872.78
2022-09-28T12:59:15.123Z,95834.66
2022-09-28T13:02:01.337Z,95870.34
2022-09-28T13:04:47.311Z,95881.81
2022-09-28T13:07:37.933Z,95875.56
2022-09-28T13:10:22.655Z,95868.88
2022-09-28T13:12:58.294Z,95882.25
2022-09-28T13:15:44.065Z,95863.38
2022-09-28T13:18:27.530Z,95875.44
2022-09-28T13:21:03.354Z,95873.53
2022-09-28T13:23:35.837Z,95876.31
2022-09-28T13:26:40.876Z,95650.63
2022-09-28T13:29:14.705Z,95593.88
2022-09-28T13:31:49.153Z,95826.00
2022-09-28T13:34:20.645Z,95879.13
2022-09-28T13:37:23.435Z,95653.91
2022-09-28T13:39:56.491Z,95887.59
2022-09-28T13:42:35.153Z,95875.66
2022-09-28T13:45:06.386Z,95886.25
2022-09-28T13:47:51.755Z,95886.88
2022-09-28T13:50:49.171Z,95863.97
2022-09-28T13:53:37.490Z,95871.00
2022-09-28T13:56:04.005Z,95859.97
2022-09-28T13:58:44.241Z,95869.53
2022-09-28T14:01:17.752Z,95870.94
2022-09-28T14:04:09.559Z,95812.28
2022-09-28T14:06:36.801Z,95849.78
2022-09-28T14:09:06.412Z,95870.06
2022-09-28T14:11:35.823Z,95877.69
2022-09-28T14:14:08.770Z,95869.88
2022-09-28T14:16:36.973Z,95835.16
2022-09-28T14:19:22.351Z,95876.31
2022-09-28T14:21:54.861Z,95874.97
2022-09-28T14:25:03.191Z,95866.13
2022-09-28T14:28:01.100Z,95871.59
2022-09-28T14:30:45.318Z,95871.03
2022-09-28T14:33:21.084Z,95877.47
2022-09-28T14:35:58.365Z,95855.88
2022-09-28T14:39:05.341Z,95880.75
2022-09-28T14:41:38.219Z,95845.78
2022-09-28T14:44:10.731Z,95890.19
2022-09-28T14:46:48.163Z,95883.16
2022-09-28T14:49:17.771Z,95889.53
2022-09-28T14:51:53.366Z,95898.75
2022-09-28T14:54:21.704Z,95889.00
2022-09-28T14:56:54.467Z,95884.00
2022-09-28T14:59:36.168Z,95881.16
2022-09-28T15:02:18.381Z,95882.72
2022-09-28T15:05:08.756Z,95885.47
2022-09-28T15:07:51.665Z,95891.34
2022-09-28T15:10:39.165Z,95890.56
2022-09-28T15:13:25.827Z,95887.66
2022-09-28T15:15:59.633Z,95877.16
2022-09-28T15:18:52.184Z,95910.75
2022-09-28T15:21:19.037Z,95862.38
2022-09-28T15:23:46.877Z,95901.81
2022-09-28T15:26:32.929Z,95907.00
2022-09-28T15:29:03.349Z,95877.72
2022-09-28T15:31:35.349Z,95897.28
2022-09-28T15:34:20.503Z,95914.34
2022-09-28T15:36:47.569Z,95906.94
2022-09-28T15:39:20.893Z,95873.88
2022-09-28T15:41:50.213Z,95913.84
2022-09-28T15:44:37.128Z,95910.16
2022-09-28T15:47:09.789Z,95888.66
2022-09-28T15:50:04.922Z,95908.38
2022-09-28T15:52:44.970Z,95910.88
2022-09-28T15:55:17.559Z,95911.13
2022-09-28T15:57:44.539Z,95911.94
2022-09-28T16:00:28.969Z,95915.47
2022-09-28T16:03:09.095Z,95923.34
2022-09-28T16:05:42.947Z,95914.13
2022-09-28T16:08:24.813Z,95934.19
2022-09-28T16:11:10.910Z,95868.78
2022-09-28T16:13:45.240Z,95934.41
2022-09-28T16:16:16.440Z,95888.94
2022-09-28T16:18:48.587Z,95823.63
2022-09-28T16:21:27.885Z,95883.59
2022-09-28T16:23:58.525Z,95916.16
2022-09-28T16:26:32.212Z,95947.13
2022-09-28T16:28:59.791Z,95947.13
2022-09-28T16:31:33.820Z,95943.66
2022-09-28T16:34:09.579Z,95953.63
2022-09-28T16:36:45.322Z,95913.44
2022-09-28T16:39:16.791Z,95962.25
2022-09-28T16:41:48.345Z,95962.81
2022-09-28T16:44:24.650Z,95971.75
2022-09-28T16:46:55.217Z,95964.53
2022-09-28T16:49:23.777Z,95973.63
2022-09-28T16:51:50.420Z,95981.38
2022-09-28T16:54:43.992Z,95974.06
2022-09-28T16:57:14.806Z,95978.63
2022-09-28T16:59:41.508Z,95976.06
2022-09-28T17:02:46.678Z,95929.84
2022-09-28T17:05:15.787Z,95933.56
2022-09-28T17:07:44.543Z,95947.25
2022-09-28T17:11:12.633Z,95985.97
2022-09-28T17:13:35.913Z,95986.22
2022-09-28T17:16:10.958Z,95983.06
2022-09-28T17:18:39.177Z,95948.75
2022-09-28T17:21:09.772Z,95983.75
2022-09-28T17:23:36.350Z,95981.41
2022-09-28T17:26:04.064Z,95980.97
2022-09-28T17:28:33.439Z,95958.09
2022-09-28T17:31:00.373Z,95888.84
2022-09-28T17:33:27.261Z,95980.72
2022-09-28T17:36:00.162Z,95983.44
2022-09-28T17:38:27.435Z,95995.34
2022-09-28T17:40:54.165Z,95983.66
2022-09-28T17:43:22.222Z,95982.47
2022-09-28T17:45:50.395Z,95939.09
2022-09-28T17:48:23.044Z,95907.88
2022-09-28T17:50:50.645Z,95990.91
2022-09-28T17:53:17.600Z,95925.94
2022-09-28T17:55:44.315Z,95943.97
2022-09-28T17:58:19.689Z,96000.66
2022-09-28T18:00:48.239Z,95974.59
2022-09-28T18:03:25.373Z,95936.63
2022-09-28T18:06:22.789Z,96002.53
2022-09-28T18:08:50.019Z,95946.94
2022-09-28T18:11:17.426Z,96013.72
2022-09-28T18:13:46.017Z,96012.44
2022-09-28T18:16:14.311Z,96016.97
2022-09-28T18:18:41.094Z,96010.94
2022-09-28T18:21:08.973Z,96025.31
2022-09-28T18:23:37.670Z,96021.97
2022-09-28T18:26:07.598Z,96009.03
2022-09-28T18:28:34.432Z,96006.69
2022-09-28T18:31:07.761Z,95978.13
2022-09-28T18:33:35.220Z,96024.84
2022-09-28T18:36:02.187Z,96021.50
2022-09-28T18:38:28.844Z,95980.25
2022-09-28T18:40:56.603Z,96032.75
2022-09-28T18:43:23.620Z,96027.97
2022-09-28T18:45:50.281Z,96001.94
2022-09-28T18:48:16.993Z,96008.00
2022-09-28T18:50:43.595Z,96034.84
2022-09-28T18:53:13.380Z,96002.59
2022-09-28T18:55:41.710Z,95965.34
2022-09-28T18:58:10.601Z,96039.56
2022-09-28T19:00:39.669Z,96043.28
2022-09-28T19:03:07.761Z,96044.00
2022-09-28T19:05:35.316Z,96041.91
2022-09-28T19:08:02.437Z,96045.03
2022-09-28T19:10:29.282Z,96037.28
2022-09-28T19:12:55.943Z,96037.28
2022-09-28T19:15:22.844Z,96045.84
2022-09-28T19:17:50.434Z,96048.50
2022-09-28T19:20:17.371Z,96071.91
2022-09-28T19:22:44.652Z,96054.19
2022-09-28T19:25:13.295Z,96065.72
2022-09-28T19:27:40.001Z,96061.50
2022-09-28T19:30:07.414Z,96064.16
2022-09-28T19:32:34.085Z,96067.09
2022-09-28T19:35:00.668Z,96065.13
2022-09-28T19:37:27.205Z,96068.81
2022-09-28T19:39:53.785Z,96073.09
2022-09-28T19:42:20.549Z,95960.84
2022-09-28T19:44:47.446Z,96076.69
2022-09-28T19:47:14.030Z,96015.28
2022-09-28T19:49:41.028Z,96010.47
2022-09-28T19:52:15.861Z,96041.69
2022-09-28T19:55:05.784Z,96080.59
2022-09-28T19:57:32.980Z,96048.63
2022-09-28T20:00:03.519Z,96095.16
2022-09-28T20:02:30.563Z,96095.44
2022-09-28T20:04:57.270Z,96047.09
2022-09-28T20:07:23.820Z,96061.81
2022-09-28T20:09:50.386Z,96101.94
2022-09-28T20:12:16.982Z,96089.03
2022-09-28T20:14:43.551Z,96064.47
2022-09-28T20:17:10.105Z,96087.09
2022-09-28T20:19:36.750Z,96097.41
2022-09-28T20:22:03.989Z,96044.41
2022-09-28T20:24:31.307Z,96086.06
2022-09-28T20:26:58.380Z,96089.03
2022-09-28T20:29:25.228Z,96080.09
2022-09-28T20:31:52.263Z,96038.69
2022-09-28T20:34:18.882Z,96090.09
2022-09-28T20:36:45.462Z,96101.94
2022-09-28T20:39:12.487Z,96101.66
2022-09-28T20:41:39.242Z,96100.53
2022-09-28T20:44:06.889Z,96102.56
2022-09-28T20:46:35.228Z,96109.16
2022-09-28T20:49:02.007Z,96078.50
2022-09-28T20:51:28.677Z,96102.78
2022-09-28T20:53:57.336Z,96111.66
2022-09-28T20:56:26.803Z,96119.63
2022-09-28T20:58:54.225Z,96112.44
2022-09-28T21:01:26.294Z,96106.84
2022-09-28T21:04:01.073Z,96101.22
2022-09-28T21:06:29.879Z,96083.47
2022-09-28T21:08:57.009Z,96106.50
2022-09-28T21:11:25.360Z,96103.53
2022-09-28T21:13:53.735Z,96095.63
2022-09-28T21:16:20.931Z,96045.59
2022-09-28T21:18:48.301Z,96084.97
2022-09-28T21:21:17.639Z,96080.97
2022-09-28T21:23:45.015Z,96100.31
2022-09-28T21:26:24.416Z,96109.03
2022-09-28T21:28:55.596Z,96075.81
2022-09-28T21:31:28.511Z,96106.25
2022-09-28T21:33:55.692Z,96106.13
2022-09-28T21:36:22.272Z,96043.34
2022-09-28T21:38:49.379Z,96049.34
2022-09-28T21:41:16.350Z,96106.69
2022-09-28T21:43:43.090Z,96112.97
2022-09-28T21:46:10.221Z,96079.69
2022-09-28T21:48:36.838Z,96066.19
2022-09-28T21:51:08.616Z,96106.72
2022-09-28T21:53:36.840Z,96007.41
2022-09-28T21:56:06.259Z,96104.75
2022-09-28T21:58:35.397Z,96076.81
2022-09-28T22:01:15.534Z,96116.34
2022-09-28T22:03:47.424Z,96081.50
2022-09-28T22:06:15.471Z,96092.25
2022-09-28T22:08:42.106Z,96110.50
2022-09-28T22:11:12.087Z,96092.94
2022-09-28T22:13:47.105Z,96100.50
2022-09-28T22:16:15.187Z,96112.00
2022-09-28T22:18:42.371Z,96124.06
2022-09-28T22:21:14.960Z,96117.78
2022-09-28T22:23:41.823Z,96109.69
2022-09-28T22:26:11.726Z,96108.97
2022-09-28T22:28:44.258Z,96112.84
2022-09-28T22:31:10.915Z,96096.59
2022-09-28T22:33:37.532Z,96061.50
2022-09-28T22:36:04.212Z,96111.16
2022-09-28T22:38:32.420Z,96118.81
2022-09-28T22:40:59.099Z,96119.84
2022-09-28T22:43:26.854Z,96122.91
2022-09-28T22:46:14.639Z,96125.88
2022-09-28T22:48:42.529Z,96127.28
2022-09-28T22:51:09.124Z,96102.53
2022-09-28T22:53:35.925Z,96132.69
2022-09-28T22:56:05.658Z,96122.38
2022-09-28T22:58:36.219Z,96124.81
2022-09-28T23:01:17.773Z,96114.56
2022-09-28T23:03:45.220Z,96091.59
2022-09-28T23:06:14.236Z,96122.38
2022-09-28T23:08:40.860Z,96071.72
2022-09-28T23:11:07.479Z,96134.03
2022-09-28T23:13:35.145Z,96139.63
2022-09-28T23:16:05.249Z,96129.63
2022-09-28T23:18:34.108Z,96125.66
2022-09-28T23:21:03.058Z,96128.47
2022-09-28T23:23:30.203Z,96116.91
2022-09-28T23:25:56.931Z,96117.88
2022-09-28T23:28:25.455Z,96058.84
2022-09-28T23:30:52.805Z,96121.06
2022-09-28T23:33:20.637Z,96114.13
2022-09-28T23:35:47.328Z,96076.44
2022-09-28T23:38:17.970Z,96122.81
2022-09-28T23:40:46.385Z,96127.66
2022-09-28T23:43:13.803Z,96117.44
2022-09-28T23:45:43.088Z,96120.59
2022-09-28T23:48:10.015Z,96057.34
2022-09-28T23:50:36.624Z,96013.63
2022-09-28T23:53:03.217Z,96050.41
2022-09-28T23:55:29.779Z,96056.88
2022-09-28T23:57:58.133Z,96114.94
